Terminal Aerodrome Forecast
Issued by NWS Cleveland, OH

Home | Current Version | Previous Version | Graphics & Text | Print | Product List | Glossary On
Versions: 1 2 3 4 5 6 7 8 9 10 11 12 13
000
FTUS41 KCLE 151700
TAFMFD
TAF
KMFD 151731Z 1518/1618 31014G20KT P6SM OVC025
     FM160000 32010KT P6SM OVC050
     FM160600 27003KT P6SM SCT050
     FM161400 18007KT P6SM SKC=

USA.gov is the U.S. government's official web portal to all federal, state and local government web resources and services.